sensor_id;sensor_type;location;lat;lon;timestamp;P1;durP1;ratioP1;P2;durP2;ratioP2
10471;SDS011;5283;48.876;8.962;2023-12-20T00:01:01;2.37;;;1.40;;
10471;SDS011;5283;48.876;8.962;2023-12-20T00:03:28;1.47;;;1.30;;
10471;SDS011;5283;48.876;8.962;2023-12-20T00:05:58;2.80;;;1.33;;
10471;SDS011;5283;48.876;8.962;2023-12-20T00:08:25;1.27;;;1.20;;
10471;SDS011;5283;48.876;8.962;2023-12-20T00:10:52;2.13;;;1.60;;
10471;SDS011;5283;48.876;8.962;2023-12-20T00:13:18;1.73;;;1.63;;
10471;SDS011;5283;48.876;8.962;2023-12-20T00:15:45;1.60;;;1.50;;
10471;SDS011;5283;48.876;8.962;2023-12-20T00:18:12;1.53;;;1.43;;
10471;SDS011;5283;48.876;8.962;2023-12-20T00:20:39;2.43;;;1.50;;
10471;SDS011;5283;48.876;8.962;2023-12-20T00:23:05;1.63;;;1.53;;
10471;SDS011;5283;48.876;8.962;2023-12-20T00:25:34;2.23;;;1.83;;
10471;SDS011;5283;48.876;8.962;2023-12-20T00:28:01;2.53;;;1.50;;
10471;SDS011;5283;48.876;8.962;2023-12-20T00:30:28;2.27;;;2.00;;
10471;SDS011;5283;48.876;8.962;2023-12-20T00:32:55;1.70;;;1.60;;
10471;SDS011;5283;48.876;8.962;2023-12-20T00:35:22;1.80;;;1.70;;
10471;SDS011;5283;48.876;8.962;2023-12-20T00:37:49;1.90;;;1.70;;
10471;SDS011;5283;48.876;8.962;2023-12-20T00:40:16;1.30;;;1.30;;
10471;SDS011;5283;48.876;8.962;2023-12-20T00:42:43;1.17;;;1.10;;
10471;SDS011;5283;48.876;8.962;2023-12-20T00:45:09;1.53;;;1.37;;
10471;SDS011;5283;48.876;8.962;2023-12-20T00:47:36;1.50;;;1.40;;
10471;SDS011;5283;48.876;8.962;2023-12-20T00:50:03;1.37;;;1.27;;
10471;SDS011;5283;48.876;8.962;2023-12-20T00:52:30;1.70;;;1.60;;
10471;SDS011;5283;48.876;8.962;2023-12-20T00:54:57;1.77;;;1.47;;
10471;SDS011;5283;48.876;8.962;2023-12-20T00:57:23;1.93;;;1.83;;
10471;SDS011;5283;48.876;8.962;2023-12-20T00:59:51;2.60;;;1.80;;
10471;SDS011;5283;48.876;8.962;2023-12-20T01:02:18;1.60;;;1.50;;
10471;SDS011;5283;48.876;8.962;2023-12-20T01:04:45;1.77;;;1.67;;
10471;SDS011;5283;48.876;8.962;2023-12-20T01:07:12;2.33;;;1.67;;
10471;SDS011;5283;48.876;8.962;2023-12-20T01:09:38;1.70;;;1.60;;
10471;SDS011;5283;48.876;8.962;2023-12-20T01:12:05;2.40;;;1.80;;
10471;SDS011;5283;48.876;8.962;2023-12-20T01:14:32;1.93;;;1.83;;
10471;SDS011;5283;48.876;8.962;2023-12-20T01:16:59;2.00;;;1.90;;
10471;SDS011;5283;48.876;8.962;2023-12-20T01:19:25;3.53;;;1.97;;
10471;SDS011;5283;48.876;8.962;2023-12-20T01:21:54;2.07;;;1.87;;
10471;SDS011;5283;48.876;8.962;2023-12-20T01:24:21;3.60;;;1.80;;
10471;SDS011;5283;48.876;8.962;2023-12-20T01:26:48;2.10;;;2.00;;
10471;SDS011;5283;48.876;8.962;2023-12-20T01:29:14;2.00;;;1.73;;
10471;SDS011;5283;48.876;8.962;2023-12-20T01:31:42;2.40;;;2.20;;
10471;SDS011;5283;48.876;8.962;2023-12-20T01:34:08;2.17;;;1.97;;
10471;SDS011;5283;48.876;8.962;2023-12-20T01:36:35;2.73;;;2.37;;
10471;SDS011;5283;48.876;8.962;2023-12-20T01:39:02;2.53;;;2.33;;
10471;SDS011;5283;48.876;8.962;2023-12-20T01:41:31;3.67;;;2.50;;
10471;SDS011;5283;48.876;8.962;2023-12-20T01:43:57;5.00;;;2.97;;
10471;SDS011;5283;48.876;8.962;2023-12-20T01:46:24;3.83;;;3.00;;
10471;SDS011;5283;48.876;8.962;2023-12-20T01:48:52;17.93;;;9.70;;
10471;SDS011;5283;48.876;8.962;2023-12-20T01:51:19;3.50;;;1.90;;
10471;SDS011;5283;48.876;8.962;2023-12-20T01:53:47;0.20;;;0.20;;
10471;SDS011;5283;48.876;8.962;2023-12-20T01:56:14;0.30;;;0.30;;
10471;SDS011;5283;48.876;8.962;2023-12-20T01:58:46;1.77;;;1.63;;
10471;SDS011;5283;48.876;8.962;2023-12-20T02:01:13;2.90;;;2.03;;
10471;SDS011;5283;48.876;8.962;2023-12-20T02:03:41;0.30;;;0.30;;
10471;SDS011;5283;48.876;8.962;2023-12-20T02:06:08;0.50;;;0.50;;
10471;SDS011;5283;48.876;8.962;2023-12-20T02:08:35;0.47;;;0.47;;
10471;SDS011;5283;48.876;8.962;2023-12-20T02:11:02;0.30;;;0.30;;
10471;SDS011;5283;48.876;8.962;2023-12-20T02:13:30;1.03;;;0.30;;
10471;SDS011;5283;48.876;8.962;2023-12-20T02:15:57;0.27;;;0.27;;
10471;SDS011;5283;48.876;8.962;2023-12-20T02:18:24;0.30;;;0.30;;
10471;SDS011;5283;48.876;8.962;2023-12-20T02:20:51;0.20;;;0.20;;
10471;SDS011;5283;48.876;8.962;2023-12-20T02:23:17;0.20;;;0.20;;
10471;SDS011;5283;48.876;8.962;2023-12-20T02:25:44;1.20;;;0.20;;
10471;SDS011;5283;48.876;8.962;2023-12-20T02:28:11;0.10;;;0.10;;
10471;SDS011;5283;48.876;8.962;2023-12-20T02:30:38;0.10;;;0.10;;
10471;SDS011;5283;48.876;8.962;2023-12-20T02:33:06;0.13;;;0.13;;
10471;SDS011;5283;48.876;8.962;2023-12-20T02:35:37;0.30;;;0.30;;
10471;SDS011;5283;48.876;8.962;2023-12-20T02:38:04;0.17;;;0.17;;
10471;SDS011;5283;48.876;8.962;2023-12-20T02:40:31;0.20;;;0.20;;
10471;SDS011;5283;48.876;8.962;2023-12-20T02:42:58;0.20;;;0.20;;
10471;SDS011;5283;48.876;8.962;2023-12-20T02:45:25;0.30;;;0.20;;
10471;SDS011;5283;48.876;8.962;2023-12-20T02:47:52;0.10;;;0.10;;
10471;SDS011;5283;48.876;8.962;2023-12-20T02:50:19;0.63;;;0.20;;
10471;SDS011;5283;48.876;8.962;2023-12-20T02:52:46;0.70;;;0.27;;
10471;SDS011;5283;48.876;8.962;2023-12-20T02:55:13;0.30;;;0.20;;
10471;SDS011;5283;48.876;8.962;2023-12-20T02:57:40;0.30;;;0.30;;
10471;SDS011;5283;48.876;8.962;2023-12-20T03:00:08;0.30;;;0.30;;
10471;SDS011;5283;48.876;8.962;2023-12-20T03:02:35;0.23;;;0.23;;
10471;SDS011;5283;48.876;8.962;2023-12-20T03:05:02;0.30;;;0.30;;
10471;SDS011;5283;48.876;8.962;2023-12-20T03:07:29;0.53;;;0.30;;
10471;SDS011;5283;48.876;8.962;2023-12-20T03:09:56;0.73;;;0.30;;
10471;SDS011;5283;48.876;8.962;2023-12-20T03:12:24;0.20;;;0.20;;
10471;SDS011;5283;48.876;8.962;2023-12-20T03:14:51;0.17;;;0.17;;
10471;SDS011;5283;48.876;8.962;2023-12-20T03:17:18;0.30;;;0.30;;
10471;SDS011;5283;48.876;8.962;2023-12-20T03:19:45;0.30;;;0.30;;
10471;SDS011;5283;48.876;8.962;2023-12-20T03:22:12;0.30;;;0.30;;
10471;SDS011;5283;48.876;8.962;2023-12-20T03:24:39;0.30;;;0.30;;
10471;SDS011;5283;48.876;8.962;2023-12-20T03:27:05;0.10;;;0.10;;
10471;SDS011;5283;48.876;8.962;2023-12-20T03:29:32;0.30;;;0.30;;
10471;SDS011;5283;48.876;8.962;2023-12-20T03:31:59;0.30;;;0.27;;
10471;SDS011;5283;48.876;8.962;2023-12-20T03:34:26;0.33;;;0.33;;
10471;SDS011;5283;48.876;8.962;2023-12-20T03:36:53;0.30;;;0.30;;
10471;SDS011;5283;48.876;8.962;2023-12-20T03:39:19;0.40;;;0.40;;
10471;SDS011;5283;48.876;8.962;2023-12-20T03:41:46;0.23;;;0.23;;
10471;SDS011;5283;48.876;8.962;2023-12-20T03:44:13;0.30;;;0.20;;
10471;SDS011;5283;48.876;8.962;2023-12-20T03:46:39;0.30;;;0.30;;
10471;SDS011;5283;48.876;8.962;2023-12-20T03:49:06;0.40;;;0.40;;
10471;SDS011;5283;48.876;8.962;2023-12-20T03:51:33;0.30;;;0.30;;
10471;SDS011;5283;48.876;8.962;2023-12-20T03:53:59;0.43;;;0.43;;
10471;SDS011;5283;48.876;8.962;2023-12-20T03:56:26;0.30;;;0.30;;
10471;SDS011;5283;48.876;8.962;2023-12-20T03:58:53;0.30;;;0.20;;
10471;SDS011;5283;48.876;8.962;2023-12-20T04:01:19;0.37;;;0.37;;
10471;SDS011;5283;48.876;8.962;2023-12-20T04:03:46;0.23;;;0.23;;
10471;SDS011;5283;48.876;8.962;2023-12-20T04:06:17;0.40;;;0.40;;
10471;SDS011;5283;48.876;8.962;2023-12-20T04:08:44;0.30;;;0.30;;
10471;SDS011;5283;48.876;8.962;2023-12-20T04:11:11;0.20;;;0.20;;
10471;SDS011;5283;48.876;8.962;2023-12-20T04:13:38;0.30;;;0.30;;
10471;SDS011;5283;48.876;8.962;2023-12-20T04:16:05;0.50;;;0.33;;
10471;SDS011;5283;48.876;8.962;2023-12-20T04:18:32;0.30;;;0.30;;
10471;SDS011;5283;48.876;8.962;2023-12-20T04:20:58;0.30;;;0.30;;
10471;SDS011;5283;48.876;8.962;2023-12-20T04:23:25;0.10;;;0.10;;
10471;SDS011;5283;48.876;8.962;2023-12-20T04:25:52;0.50;;;0.50;;
10471;SDS011;5283;48.876;8.962;2023-12-20T04:28:19;0.20;;;0.20;;
10471;SDS011;5283;48.876;8.962;2023-12-20T04:30:46;0.10;;;0.10;;
10471;SDS011;5283;48.876;8.962;2023-12-20T04:33:13;0.40;;;0.23;;
10471;SDS011;5283;48.876;8.962;2023-12-20T04:35:39;0.30;;;0.30;;
10471;SDS011;5283;48.876;8.962;2023-12-20T04:38:07;0.70;;;0.27;;
10471;SDS011;5283;48.876;8.962;2023-12-20T04:40:33;0.73;;;0.40;;
10471;SDS011;5283;48.876;8.962;2023-12-20T04:43:00;0.57;;;0.57;;
10471;SDS011;5283;48.876;8.962;2023-12-20T04:45:27;0.53;;;0.27;;
10471;SDS011;5283;48.876;8.962;2023-12-20T04:47:54;0.10;;;0.10;;
10471;SDS011;5283;48.876;8.962;2023-12-20T04:50:21;0.30;;;0.30;;
10471;SDS011;5283;48.876;8.962;2023-12-20T04:52:48;0.33;;;0.33;;
10471;SDS011;5283;48.876;8.962;2023-12-20T04:55:15;0.30;;;0.30;;
10471;SDS011;5283;48.876;8.962;2023-12-20T04:57:42;0.30;;;0.30;;
10471;SDS011;5283;48.876;8.962;2023-12-20T05:00:09;0.40;;;0.40;;
10471;SDS011;5283;48.876;8.962;2023-12-20T05:02:36;0.40;;;0.37;;
10471;SDS011;5283;48.876;8.962;2023-12-20T05:05:04;0.50;;;0.50;;
10471;SDS011;5283;48.876;8.962;2023-12-20T05:07:30;0.90;;;0.90;;
10471;SDS011;5283;48.876;8.962;2023-12-20T05:09:58;1.00;;;1.00;;
10471;SDS011;5283;48.876;8.962;2023-12-20T05:12:25;0.80;;;0.80;;
10471;SDS011;5283;48.876;8.962;2023-12-20T05:14:51;1.00;;;1.00;;
10471;SDS011;5283;48.876;8.962;2023-12-20T05:17:18;1.50;;;1.40;;
10471;SDS011;5283;48.876;8.962;2023-12-20T05:19:46;0.90;;;0.90;;
10471;SDS011;5283;48.876;8.962;2023-12-20T05:22:13;1.17;;;1.17;;
10471;SDS011;5283;48.876;8.962;2023-12-20T05:24:40;1.17;;;1.17;;
10471;SDS011;5283;48.876;8.962;2023-12-20T05:27:07;1.20;;;1.10;;
10471;SDS011;5283;48.876;8.962;2023-12-20T05:29:33;1.57;;;1.47;;
10471;SDS011;5283;48.876;8.962;2023-12-20T05:32:00;1.67;;;1.47;;
10471;SDS011;5283;48.876;8.962;2023-12-20T05:34:27;1.17;;;1.17;;
10471;SDS011;5283;48.876;8.962;2023-12-20T05:36:53;1.07;;;1.07;;
10471;SDS011;5283;48.876;8.962;2023-12-20T05:39:20;1.10;;;1.10;;
10471;SDS011;5283;48.876;8.962;2023-12-20T05:41:47;1.33;;;1.23;;
10471;SDS011;5283;48.876;8.962;2023-12-20T05:44:14;1.43;;;1.43;;
10471;SDS011;5283;48.876;8.962;2023-12-20T05:46:40;1.50;;;1.40;;
10471;SDS011;5283;48.876;8.962;2023-12-20T05:49:07;1.70;;;1.60;;
10471;SDS011;5283;48.876;8.962;2023-12-20T05:51:34;1.30;;;1.20;;
10471;SDS011;5283;48.876;8.962;2023-12-20T05:54:00;1.17;;;1.17;;
10471;SDS011;5283;48.876;8.962;2023-12-20T05:56:27;1.70;;;1.40;;
10471;SDS011;5283;48.876;8.962;2023-12-20T05:58:54;0.90;;;0.90;;
10471;SDS011;5283;48.876;8.962;2023-12-20T06:01:20;1.00;;;0.90;;
10471;SDS011;5283;48.876;8.962;2023-12-20T06:03:47;0.90;;;0.90;;
10471;SDS011;5283;48.876;8.962;2023-12-20T06:06:14;1.17;;;1.10;;
10471;SDS011;5283;48.876;8.962;2023-12-20T06:08:41;1.60;;;1.50;;
10471;SDS011;5283;48.876;8.962;2023-12-20T06:11:09;1.20;;;1.20;;
10471;SDS011;5283;48.876;8.962;2023-12-20T06:13:36;1.40;;;1.40;;
10471;SDS011;5283;48.876;8.962;2023-12-20T06:16:04;1.80;;;1.70;;
10471;SDS011;5283;48.876;8.962;2023-12-20T06:18:32;1.33;;;1.23;;
10471;SDS011;5283;48.876;8.962;2023-12-20T06:20:59;1.60;;;1.50;;
10471;SDS011;5283;48.876;8.962;2023-12-20T06:23:25;1.40;;;1.40;;
10471;SDS011;5283;48.876;8.962;2023-12-20T06:25:54;1.47;;;1.37;;
10471;SDS011;5283;48.876;8.962;2023-12-20T06:28:21;1.23;;;1.23;;
10471;SDS011;5283;48.876;8.962;2023-12-20T06:30:48;1.43;;;1.33;;
10471;SDS011;5283;48.876;8.962;2023-12-20T06:33:16;1.60;;;1.50;;
10471;SDS011;5283;48.876;8.962;2023-12-20T06:35:42;1.50;;;1.50;;
10471;SDS011;5283;48.876;8.962;2023-12-20T06:38:09;1.60;;;1.50;;
10471;SDS011;5283;48.876;8.962;2023-12-20T06:40:36;1.90;;;1.80;;
10471;SDS011;5283;48.876;8.962;2023-12-20T06:43:03;2.43;;;2.23;;
10471;SDS011;5283;48.876;8.962;2023-12-20T06:45:30;2.50;;;2.40;;
10471;SDS011;5283;48.876;8.962;2023-12-20T06:47:57;2.20;;;2.10;;
10471;SDS011;5283;48.876;8.962;2023-12-20T06:50:24;2.80;;;2.60;;
10471;SDS011;5283;48.876;8.962;2023-12-20T06:52:51;2.30;;;2.20;;
10471;SDS011;5283;48.876;8.962;2023-12-20T06:55:18;3.13;;;2.90;;
10471;SDS011;5283;48.876;8.962;2023-12-20T06:57:45;3.10;;;2.90;;
10471;SDS011;5283;48.876;8.962;2023-12-20T07:00:12;3.27;;;3.03;;
10471;SDS011;5283;48.876;8.962;2023-12-20T07:02:39;3.63;;;3.33;;
10471;SDS011;5283;48.876;8.962;2023-12-20T07:05:06;3.13;;;2.93;;
10471;SDS011;5283;48.876;8.962;2023-12-20T07:07:33;3.67;;;3.37;;
10471;SDS011;5283;48.876;8.962;2023-12-20T07:10:00;3.50;;;3.20;;
10471;SDS011;5283;48.876;8.962;2023-12-20T07:12:27;3.30;;;3.00;;
10471;SDS011;5283;48.876;8.962;2023-12-20T07:14:54;2.80;;;2.60;;
10471;SDS011;5283;48.876;8.962;2023-12-20T07:17:22;2.73;;;2.53;;
10471;SDS011;5283;48.876;8.962;2023-12-20T07:19:49;2.40;;;2.10;;
10471;SDS011;5283;48.876;8.962;2023-12-20T07:22:15;2.17;;;2.07;;
10471;SDS011;5283;48.876;8.962;2023-12-20T07:24:42;2.17;;;2.07;;
10471;SDS011;5283;48.876;8.962;2023-12-20T07:27:09;2.70;;;2.50;;
10471;SDS011;5283;48.876;8.962;2023-12-20T07:29:35;2.50;;;2.30;;
10471;SDS011;5283;48.876;8.962;2023-12-20T07:32:02;2.83;;;2.63;;
10471;SDS011;5283;48.876;8.962;2023-12-20T07:34:29;2.97;;;2.77;;
10471;SDS011;5283;48.876;8.962;2023-12-20T07:36:58;3.03;;;2.70;;
10471;SDS011;5283;48.876;8.962;2023-12-20T07:39:24;3.10;;;2.90;;
10471;SDS011;5283;48.876;8.962;2023-12-20T07:41:51;2.97;;;2.70;;
10471;SDS011;5283;48.876;8.962;2023-12-20T07:44:18;2.70;;;2.50;;
10471;SDS011;5283;48.876;8.962;2023-12-20T07:46:44;2.63;;;2.43;;
10471;SDS011;5283;48.876;8.962;2023-12-20T07:49:11;2.70;;;2.50;;
10471;SDS011;5283;48.876;8.962;2023-12-20T07:51:38;2.90;;;2.70;;
10471;SDS011;5283;48.876;8.962;2023-12-20T07:54:05;3.10;;;2.80;;
10471;SDS011;5283;48.876;8.962;2023-12-20T07:56:31;2.73;;;2.53;;
10471;SDS011;5283;48.876;8.962;2023-12-20T07:58:58;3.20;;;2.90;;
10471;SDS011;5283;48.876;8.962;2023-12-20T08:01:25;3.40;;;3.10;;
10471;SDS011;5283;48.876;8.962;2023-12-20T08:03:52;3.20;;;2.90;;
10471;SDS011;5283;48.876;8.962;2023-12-20T08:06:19;2.80;;;2.60;;
10471;SDS011;5283;48.876;8.962;2023-12-20T08:08:46;2.60;;;2.40;;
10471;SDS011;5283;48.876;8.962;2023-12-20T08:11:15;2.63;;;2.43;;
10471;SDS011;5283;48.876;8.962;2023-12-20T08:13:42;2.93;;;2.70;;
10471;SDS011;5283;48.876;8.962;2023-12-20T08:16:08;3.07;;;2.87;;
10471;SDS011;5283;48.876;8.962;2023-12-20T08:18:35;2.97;;;2.70;;
10471;SDS011;5283;48.876;8.962;2023-12-20T08:21:02;3.33;;;2.83;;
10471;SDS011;5283;48.876;8.962;2023-12-20T08:23:29;2.83;;;2.63;;
10471;SDS011;5283;48.876;8.962;2023-12-20T08:25:57;3.80;;;2.73;;
10471;SDS011;5283;48.876;8.962;2023-12-20T08:28:23;3.40;;;3.13;;
10471;SDS011;5283;48.876;8.962;2023-12-20T08:30:50;3.33;;;2.90;;
10471;SDS011;5283;48.876;8.962;2023-12-20T08:33:19;4.17;;;2.53;;
10471;SDS011;5283;48.876;8.962;2023-12-20T08:35:46;2.17;;;2.07;;
10471;SDS011;5283;48.876;8.962;2023-12-20T08:38:13;2.83;;;2.30;;
10471;SDS011;5283;48.876;8.962;2023-12-20T08:40:40;2.63;;;2.43;;
10471;SDS011;5283;48.876;8.962;2023-12-20T08:43:07;2.70;;;2.50;;
10471;SDS011;5283;48.876;8.962;2023-12-20T08:45:34;0.00;;;0.00;;
10471;SDS011;5283;48.876;8.962;2023-12-20T08:48:01;0.60;;;0.60;;
10471;SDS011;5283;48.876;8.962;2023-12-20T08:50:28;2.50;;;2.30;;
10471;SDS011;5283;48.876;8.962;2023-12-20T08:52:55;0.00;;;0.00;;
10471;SDS011;5283;48.876;8.962;2023-12-20T08:55:22;0.53;;;0.53;;
10471;SDS011;5283;48.876;8.962;2023-12-20T08:57:48;3.60;;;2.93;;
10471;SDS011;5283;48.876;8.962;2023-12-20T09:00:16;0.43;;;0.43;;
10471;SDS011;5283;48.876;8.962;2023-12-20T09:02:46;1.10;;;1.00;;
10471;SDS011;5283;48.876;8.962;2023-12-20T09:05:13;0.57;;;0.57;;
10471;SDS011;5283;48.876;8.962;2023-12-20T09:07:39;0.80;;;0.80;;
10471;SDS011;5283;48.876;8.962;2023-12-20T09:10:06;1.07;;;0.77;;
10471;SDS011;5283;48.876;8.962;2023-12-20T09:12:33;1.07;;;0.70;;
10471;SDS011;5283;48.876;8.962;2023-12-20T09:15:00;0.83;;;0.53;;
10471;SDS011;5283;48.876;8.962;2023-12-20T09:17:29;0.90;;;0.67;;
10471;SDS011;5283;48.876;8.962;2023-12-20T09:19:55;0.97;;;0.60;;
10471;SDS011;5283;48.876;8.962;2023-12-20T09:22:22;1.17;;;0.57;;
10471;SDS011;5283;48.876;8.962;2023-12-20T09:24:49;1.37;;;0.67;;
10471;SDS011;5283;48.876;8.962;2023-12-20T09:27:16;1.67;;;0.80;;
10471;SDS011;5283;48.876;8.962;2023-12-20T09:29:43;0.87;;;0.47;;
10471;SDS011;5283;48.876;8.962;2023-12-20T09:32:09;0.67;;;0.57;;
10471;SDS011;5283;48.876;8.962;2023-12-20T09:34:36;1.40;;;0.50;;
10471;SDS011;5283;48.876;8.962;2023-12-20T09:37:04;0.60;;;0.60;;
10471;SDS011;5283;48.876;8.962;2023-12-20T09:39:31;1.40;;;0.80;;
10471;SDS011;5283;48.876;8.962;2023-12-20T09:42:02;1.50;;;0.47;;
10471;SDS011;5283;48.876;8.962;2023-12-20T09:44:30;0.93;;;0.53;;
10471;SDS011;5283;48.876;8.962;2023-12-20T09:46:59;2.10;;;0.60;;
10471;SDS011;5283;48.876;8.962;2023-12-20T09:49:29;0.70;;;0.60;;
10471;SDS011;5283;48.876;8.962;2023-12-20T09:51:56;0.63;;;0.60;;
10471;SDS011;5283;48.876;8.962;2023-12-20T09:54:23;1.67;;;0.50;;
10471;SDS011;5283;48.876;8.962;2023-12-20T09:56:50;1.17;;;0.60;;
10471;SDS011;5283;48.876;8.962;2023-12-20T09:59:16;1.43;;;0.80;;
10471;SDS011;5283;48.876;8.962;2023-12-20T10:01:43;1.97;;;1.00;;
10471;SDS011;5283;48.876;8.962;2023-12-20T10:04:11;0.83;;;0.77;;
10471;SDS011;5283;48.876;8.962;2023-12-20T10:06:42;1.87;;;0.80;;
10471;SDS011;5283;48.876;8.962;2023-12-20T10:09:09;1.40;;;1.00;;
10471;SDS011;5283;48.876;8.962;2023-12-20T10:11:37;3.13;;;1.07;;
10471;SDS011;5283;48.876;8.962;2023-12-20T10:14:05;1.27;;;0.97;;
10471;SDS011;5283;48.876;8.962;2023-12-20T10:16:33;3.20;;;1.00;;
10471;SDS011;5283;48.876;8.962;2023-12-20T10:19:00;2.90;;;1.13;;
10471;SDS011;5283;48.876;8.962;2023-12-20T10:21:27;2.03;;;1.30;;
10471;SDS011;5283;48.876;8.962;2023-12-20T10:23:54;1.73;;;0.80;;
10471;SDS011;5283;48.876;8.962;2023-12-20T10:26:22;3.93;;;0.97;;
10471;SDS011;5283;48.876;8.962;2023-12-20T10:28:51;2.97;;;1.20;;
10471;SDS011;5283;48.876;8.962;2023-12-20T10:31:53;1.10;;;0.70;;
10471;SDS011;5283;48.876;8.962;2023-12-20T10:34:12;1.57;;;0.93;;
10471;SDS011;5283;48.876;8.962;2023-12-20T10:36:39;2.93;;;0.70;;
10471;SDS011;5283;48.876;8.962;2023-12-20T10:39:06;2.33;;;0.73;;
10471;SDS011;5283;48.876;8.962;2023-12-20T10:41:35;1.50;;;1.00;;
10471;SDS011;5283;48.876;8.962;2023-12-20T10:44:08;1.63;;;1.20;;
10471;SDS011;5283;48.876;8.962;2023-12-20T10:46:36;2.33;;;1.07;;
10471;SDS011;5283;48.876;8.962;2023-12-20T10:49:05;1.27;;;0.77;;
10471;SDS011;5283;48.876;8.962;2023-12-20T10:51:33;1.87;;;0.80;;
10471;SDS011;5283;48.876;8.962;2023-12-20T10:54:01;2.10;;;0.90;;
10471;SDS011;5283;48.876;8.962;2023-12-20T10:56:28;2.27;;;0.93;;
10471;SDS011;5283;48.876;8.962;2023-12-20T10:58:58;2.13;;;1.10;;
10471;SDS011;5283;48.876;8.962;2023-12-20T11:01:28;2.27;;;1.03;;
10471;SDS011;5283;48.876;8.962;2023-12-20T11:03:56;2.40;;;1.00;;
10471;SDS011;5283;48.876;8.962;2023-12-20T11:09:06;3.50;;;1.20;;
10471;SDS011;5283;48.876;8.962;2023-12-20T11:11:51;2.83;;;1.10;;
10471;SDS011;5283;48.876;8.962;2023-12-20T11:14:26;3.03;;;1.13;;
10471;SDS011;5283;48.876;8.962;2023-12-20T11:17:14;1.77;;;1.10;;
10471;SDS011;5283;48.876;8.962;2023-12-20T11:20:03;1.33;;;1.00;;
10471;SDS011;5283;48.876;8.962;2023-12-20T11:22:30;2.53;;;1.17;;
10471;SDS011;5283;48.876;8.962;2023-12-20T11:24:59;1.33;;;1.23;;
10471;SDS011;5283;48.876;8.962;2023-12-20T11:27:36;2.77;;;1.20;;
10471;SDS011;5283;48.876;8.962;2023-12-20T11:30:07;3.10;;;0.90;;
10471;SDS011;5283;48.876;8.962;2023-12-20T11:32:36;2.73;;;1.10;;
10471;SDS011;5283;48.876;8.962;2023-12-20T11:37:37;1.77;;;1.10;;
10471;SDS011;5283;48.876;8.962;2023-12-20T11:40:06;3.07;;;0.93;;
10471;SDS011;5283;48.876;8.962;2023-12-20T11:42:38;2.33;;;1.17;;
10471;SDS011;5283;48.876;8.962;2023-12-20T11:45:09;3.53;;;1.20;;
10471;SDS011;5283;48.876;8.962;2023-12-20T11:47:45;2.13;;;1.20;;
10471;SDS011;5283;48.876;8.962;2023-12-20T11:50:13;2.83;;;1.17;;
10471;SDS011;5283;48.876;8.962;2023-12-20T11:52:40;1.50;;;0.83;;
10471;SDS011;5283;48.876;8.962;2023-12-20T11:55:07;3.53;;;1.10;;
10471;SDS011;5283;48.876;8.962;2023-12-20T11:57:34;2.57;;;1.00;;
10471;SDS011;5283;48.876;8.962;2023-12-20T12:00:02;1.60;;;1.00;;
10471;SDS011;5283;48.876;8.962;2023-12-20T12:02:30;1.90;;;0.93;;
10471;SDS011;5283;48.876;8.962;2023-12-20T12:04:57;2.83;;;1.13;;
10471;SDS011;5283;48.876;8.962;2023-12-20T12:07:25;2.47;;;1.07;;
10471;SDS011;5283;48.876;8.962;2023-12-20T12:09:52;1.93;;;0.70;;
10471;SDS011;5283;48.876;8.962;2023-12-20T12:12:18;1.77;;;0.83;;
10471;SDS011;5283;48.876;8.962;2023-12-20T12:14:46;3.37;;;1.30;;
10471;SDS011;5283;48.876;8.962;2023-12-20T12:17:13;2.20;;;1.00;;
10471;SDS011;5283;48.876;8.962;2023-12-20T12:19:41;3.40;;;1.10;;
10471;SDS011;5283;48.876;8.962;2023-12-20T12:22:12;2.10;;;0.90;;
10471;SDS011;5283;48.876;8.962;2023-12-20T12:24:45;1.07;;;0.60;;
10471;SDS011;5283;48.876;8.962;2023-12-20T12:27:13;3.13;;;1.23;;
10471;SDS011;5283;48.876;8.962;2023-12-20T12:29:40;2.27;;;0.90;;
10471;SDS011;5283;48.876;8.962;2023-12-20T12:32:07;1.13;;;0.83;;
10471;SDS011;5283;48.876;8.962;2023-12-20T12:34:35;3.00;;;0.93;;
10471;SDS011;5283;48.876;8.962;2023-12-20T12:37:03;3.00;;;0.97;;
10471;SDS011;5283;48.876;8.962;2023-12-20T12:39:30;3.07;;;1.20;;
10471;SDS011;5283;48.876;8.962;2023-12-20T12:41:57;3.57;;;1.00;;
10471;SDS011;5283;48.876;8.962;2023-12-20T12:44:23;2.50;;;1.00;;
10471;SDS011;5283;48.876;8.962;2023-12-20T12:46:51;1.67;;;0.70;;
10471;SDS011;5283;48.876;8.962;2023-12-20T12:49:22;5.23;;;0.90;;
10471;SDS011;5283;48.876;8.962;2023-12-20T12:51:49;1.23;;;0.70;;
10471;SDS011;5283;48.876;8.962;2023-12-20T12:54:15;2.87;;;1.10;;
10471;SDS011;5283;48.876;8.962;2023-12-20T12:56:43;1.23;;;0.80;;
10471;SDS011;5283;48.876;8.962;2023-12-20T12:59:10;1.90;;;0.80;;
10471;SDS011;5283;48.876;8.962;2023-12-20T13:01:37;4.10;;;1.07;;
10471;SDS011;5283;48.876;8.962;2023-12-20T13:04:05;4.23;;;1.27;;
10471;SDS011;5283;48.876;8.962;2023-12-20T13:06:37;1.17;;;0.63;;
10471;SDS011;5283;48.876;8.962;2023-12-20T13:09:04;0.80;;;0.53;;
10471;SDS011;5283;48.876;8.962;2023-12-20T13:11:31;0.80;;;0.60;;
10471;SDS011;5283;48.876;8.962;2023-12-20T13:13:58;1.20;;;0.70;;
10471;SDS011;5283;48.876;8.962;2023-12-20T13:16:25;3.37;;;0.87;;
10471;SDS011;5283;48.876;8.962;2023-12-20T13:18:52;1.00;;;0.70;;
10471;SDS011;5283;48.876;8.962;2023-12-20T13:21:19;1.40;;;0.90;;
10471;SDS011;5283;48.876;8.962;2023-12-20T13:23:46;3.53;;;1.07;;
10471;SDS011;5283;48.876;8.962;2023-12-20T13:26:13;1.67;;;0.70;;
10471;SDS011;5283;48.876;8.962;2023-12-20T13:28:40;3.77;;;0.80;;
10471;SDS011;5283;48.876;8.962;2023-12-20T13:31:07;3.17;;;0.93;;
10471;SDS011;5283;48.876;8.962;2023-12-20T13:33:34;0.90;;;0.70;;
10471;SDS011;5283;48.876;8.962;2023-12-20T13:36:00;1.43;;;0.87;;
10471;SDS011;5283;48.876;8.962;2023-12-20T13:38:28;1.30;;;0.73;;
10471;SDS011;5283;48.876;8.962;2023-12-20T13:40:54;1.47;;;0.80;;
10471;SDS011;5283;48.876;8.962;2023-12-20T13:43:21;2.30;;;0.77;;
10471;SDS011;5283;48.876;8.962;2023-12-20T13:45:48;2.90;;;1.00;;
10471;SDS011;5283;48.876;8.962;2023-12-20T13:48:15;3.07;;;0.90;;
10471;SDS011;5283;48.876;8.962;2023-12-20T13:50:42;2.17;;;0.67;;
10471;SDS011;5283;48.876;8.962;2023-12-20T13:53:09;3.20;;;0.90;;
10471;SDS011;5283;48.876;8.962;2023-12-20T13:55:35;2.90;;;1.20;;
10471;SDS011;5283;48.876;8.962;2023-12-20T13:58:02;2.73;;;1.10;;
10471;SDS011;5283;48.876;8.962;2023-12-20T14:00:29;1.03;;;0.70;;
10471;SDS011;5283;48.876;8.962;2023-12-20T14:02:56;2.77;;;1.23;;
10471;SDS011;5283;48.876;8.962;2023-12-20T14:05:22;3.13;;;1.33;;
10471;SDS011;5283;48.876;8.962;2023-12-20T14:07:51;1.97;;;1.00;;
10471;SDS011;5283;48.876;8.962;2023-12-20T14:10:18;4.33;;;1.10;;
10471;SDS011;5283;48.876;8.962;2023-12-20T14:12:44;3.30;;;0.97;;
10471;SDS011;5283;48.876;8.962;2023-12-20T14:15:11;2.97;;;1.20;;
10471;SDS011;5283;48.876;8.962;2023-12-20T14:17:39;3.33;;;1.00;;
10471;SDS011;5283;48.876;8.962;2023-12-20T14:20:08;2.40;;;1.07;;
10471;SDS011;5283;48.876;8.962;2023-12-20T14:22:36;2.53;;;0.80;;
10471;SDS011;5283;48.876;8.962;2023-12-20T14:25:04;2.80;;;1.10;;
10471;SDS011;5283;48.876;8.962;2023-12-20T14:27:32;2.73;;;1.00;;
10471;SDS011;5283;48.876;8.962;2023-12-20T14:29:59;1.17;;;0.90;;
10471;SDS011;5283;48.876;8.962;2023-12-20T14:32:26;1.67;;;0.97;;
10471;SDS011;5283;48.876;8.962;2023-12-20T14:34:54;2.37;;;0.90;;
10471;SDS011;5283;48.876;8.962;2023-12-20T14:37:21;2.50;;;0.90;;
10471;SDS011;5283;48.876;8.962;2023-12-20T14:39:48;2.30;;;0.90;;
10471;SDS011;5283;48.876;8.962;2023-12-20T14:42:15;3.23;;;1.10;;
10471;SDS011;5283;48.876;8.962;2023-12-20T14:44:42;1.80;;;0.90;;
10471;SDS011;5283;48.876;8.962;2023-12-20T14:47:09;2.50;;;1.10;;
10471;SDS011;5283;48.876;8.962;2023-12-20T14:49:36;2.10;;;0.90;;
10471;SDS011;5283;48.876;8.962;2023-12-20T14:52:03;2.20;;;1.10;;
10471;SDS011;5283;48.876;8.962;2023-12-20T14:54:30;2.23;;;0.80;;
10471;SDS011;5283;48.876;8.962;2023-12-20T14:56:57;2.77;;;1.20;;
10471;SDS011;5283;48.876;8.962;2023-12-20T14:59:26;0.83;;;0.70;;
10471;SDS011;5283;48.876;8.962;2023-12-20T15:01:52;1.07;;;0.90;;
10471;SDS011;5283;48.876;8.962;2023-12-20T15:04:19;1.87;;;1.00;;
10471;SDS011;5283;48.876;8.962;2023-12-20T15:06:52;2.23;;;1.10;;